KSTP

St Paul Downtown Holman Field Airport

St Paul, Minnesota, USA
METAR KSTP 220453Z AUTO 35003KT 10SM CLR 20/16 A2991 RMK AO2 SLP124 T02000156
Observed Flight Rules
Jun-22 @ 04:53 UTC (48 minutes ago) Visual Flight Rules
Wind Visibility Clouds
350° at 3 knots 10 miles
  • Clear skies
Temperatures Readings
Current 20°C / 68°F
Dewpoint 16°C / 61°F
Humidity 78%
Altimeter 29.91" Hg
Pressure 1012.4 hPa
Elevation 219
METAR KSTP 220453Z AUTO 35003KT 10SM CLR 20/16 A2991 RMK AO2 SLP124 T02000156
Observed Flight Rules
Jun-22 @ 04:53 UTC
(48 minutes ago)
VFR
Wind Visibility
350° at 3 knots 10 miles
Clouds
  • Clear skies
Temperature Dewpoint
20°C / 68°F 16°C / 61°F
Humidity Altimeter Pressure
78% 29.91" Hg 1012.4 hPa